Time;durP1;ratioP1;P1;durP2;ratioP2;P2;SDS_P1;SDS_P2;PMS_P1;PMS_P2;Temp;Humidity;BMP_temperature;BMP_pressure;BME280_temperature;BME280_humidity;BME280_pressure;Samples;Min_cycle;Max_cycle;Signal;HPM_P1;HPM_P2
2023/01/22 00:00:04;;;;;;;80.20;55.90;;;;;;;-128.00;-1.00;-1.00;105745;1253;1004544;-75
2023/01/22 00:02:51;;;;;;;74.70;52.10;;;;;;;-128.00;-1.00;-1.00;105636;1254;1055742;-74
2023/01/22 00:05:18;;;;;;;76.40;51.70;;;;;;;-128.00;-1.00;-1.00;105658;1253;1004519;-75
2023/01/22 00:07:45;;;;;;;75.10;50.80;;;;;;;-128.00;-1.00;-1.00;105704;1253;1003780;-76
2023/01/22 00:10:11;;;;;;;71.30;47.50;;;;;;;-128.00;-1.00;-1.00;105664;1253;1004917;-75
2023/01/22 00:12:38;;;;;;;70.90;46.60;;;;;;;-128.00;-1.00;-1.00;105681;1252;1004944;-75
2023/01/22 00:15:05;;;;;;;67.60;45.70;;;;;;;-128.00;-1.00;-1.00;105354;1253;1004125;-75
2023/01/22 00:17:32;;;;;;;64.70;43.80;;;;;;;-128.00;-1.00;-1.00;105662;1252;1004706;-75
2023/01/22 00:19:59;;;;;;;57.70;41.00;;;;;;;-128.00;-1.00;-1.00;105707;1253;1003376;-75
2023/01/22 00:22:25;;;;;;;59.70;41.20;;;;;;;-128.00;-1.00;-1.00;105687;1252;1004017;-75
2023/01/22 00:24:52;;;;;;;60.30;41.40;;;;;;;-128.00;-1.00;-1.00;105664;1253;1005301;-76
2023/01/22 00:27:18;;;;;;;55.80;39.70;;;;;;;-128.00;-1.00;-1.00;105690;1253;1003888;-76
2023/01/22 00:29:45;;;;;;;57.10;39.00;;;;;;;-128.00;-1.00;-1.00;105613;1253;1004639;-76
2023/01/22 00:32:12;;;;;;;53.20;38.00;;;;;;;-128.00;-1.00;-1.00;105656;1253;1005301;-75
2023/01/22 00:34:38;;;;;;;54.50;38.20;;;;;;;-128.00;-1.00;-1.00;105716;1253;1004757;-75
2023/01/22 00:37:05;;;;;;;58.20;39.80;;;;;;;-128.00;-1.00;-1.00;105688;1253;1004566;-76
2023/01/22 00:39:32;;;;;;;54.60;39.20;;;;;;;-128.00;-1.00;-1.00;105356;1253;1003635;-75
2023/01/22 00:41:58;;;;;;;48.20;33.50;;;;;;;-128.00;-1.00;-1.00;105664;1253;1004477;-76
2023/01/22 00:44:25;;;;;;;53.90;35.90;;;;;;;-128.00;-1.00;-1.00;105706;1252;1003580;-75
2023/01/22 00:46:52;;;;;;;44.90;33.40;;;;;;;-128.00;-1.00;-1.00;105676;1252;1003286;-76
2023/01/22 00:49:18;;;;;;;44.70;32.70;;;;;;;-128.00;-1.00;-1.00;105689;1253;1004675;-76
2023/01/22 00:51:45;;;;;;;46.20;31.60;;;;;;;-128.00;-1.00;-1.00;105387;1253;1004067;-76
2023/01/22 00:54:12;;;;;;;45.50;32.70;;;;;;;-128.00;-1.00;-1.00;105665;1253;1004148;-76
2023/01/22 00:56:40;;;;;;;43.80;31.50;;;;;;;-128.00;-1.00;-1.00;105654;1253;1044959;-75
2023/01/22 00:59:09;;;;;;;43.90;31.30;;;;;;;-128.00;-1.00;-1.00;105478;1256;1003414;-76
2023/01/22 01:01:38;;;;;;;44.60;31.80;;;;;;;-128.00;-1.00;-1.00;105666;1252;1061910;-75
2023/01/22 01:04:04;;;;;;;44.40;30.30;;;;;;;-128.00;-1.00;-1.00;105647;1253;1055595;-76
2023/01/22 01:06:31;;;;;;;43.50;30.40;;;;;;;-128.00;-1.00;-1.00;105635;1252;1004943;-76
2023/01/22 01:08:58;;;;;;;46.50;32.10;;;;;;;-128.00;-1.00;-1.00;105639;1252;1004381;-76
2023/01/22 01:11:25;;;;;;;44.30;32.30;;;;;;;-128.00;-1.00;-1.00;105691;1253;1004745;-76
2023/01/22 01:13:52;;;;;;;44.70;31.80;;;;;;;-128.00;-1.00;-1.00;105669;1252;1004476;-75
2023/01/22 01:16:22;;;;;;;42.00;28.90;;;;;;;-128.00;-1.00;-1.00;105706;1252;1004782;-76
2023/01/22 01:18:49;;;;;;;42.70;31.60;;;;;;;-128.00;-1.00;-1.00;105670;1253;1058915;-76
2023/01/22 01:21:17;;;;;;;42.20;29.20;;;;;;;-128.00;-1.00;-1.00;105301;1253;1004298;-76
2023/01/22 01:23:45;;;;;;;41.60;29.60;;;;;;;-128.00;-1.00;-1.00;105660;1253;1006008;-76
2023/01/22 01:26:14;;;;;;;44.20;30.00;;;;;;;-128.00;-1.00;-1.00;105656;1252;1003764;-76
2023/01/22 01:28:42;;;;;;;46.20;31.40;;;;;;;-128.00;-1.00;-1.00;105718;1252;1056368;-76
2023/01/22 01:31:11;;;;;;;42.40;30.60;;;;;;;-128.00;-1.00;-1.00;105704;1252;1004503;-76
2023/01/22 01:33:38;;;;;;;46.80;32.10;;;;;;;-128.00;-1.00;-1.00;105670;1253;1045308;-75
2023/01/22 01:36:09;;;;;;;41.80;28.20;;;;;;;-128.00;-1.00;-1.00;105683;1252;1004310;-75
2023/01/22 01:38:36;;;;;;;37.70;27.20;;;;;;;-128.00;-1.00;-1.00;105649;1253;1061429;-75
2023/01/22 01:41:03;;;;;;;37.20;25.10;;;;;;;-128.00;-1.00;-1.00;105651;1253;1004892;-76
2023/01/22 01:43:30;;;;;;;37.70;26.00;;;;;;;-128.00;-1.00;-1.00;104906;1252;1004388;-76
2023/01/22 01:45:59;;;;;;;39.30;26.10;;;;;;;-128.00;-1.00;-1.00;105313;1253;1004350;-76
2023/01/22 01:48:32;;;;;;;37.60;26.90;;;;;;;-128.00;-1.00;-1.00;105529;1253;1047762;-76
2023/01/22 01:51:14;;;;;;;32.80;23.60;;;;;;;-128.00;-1.00;-1.00;105541;1253;1062288;-76
2023/01/22 01:53:43;;;;;;;34.20;24.10;;;;;;;-128.00;-1.00;-1.00;105643;1253;1056108;-76
2023/01/22 01:56:16;;;;;;;36.10;25.30;;;;;;;-128.00;-1.00;-1.00;105663;1252;1058597;-75
2023/01/22 01:58:45;;;;;;;33.70;24.40;;;;;;;-128.00;-1.00;-1.00;105321;1252;1045841;-75
2023/01/22 02:01:15;;;;;;;38.00;26.30;;;;;;;-128.00;-1.00;-1.00;105645;1252;1047051;-76
2023/01/22 02:03:43;;;;;;;32.10;21.90;;;;;;;-128.00;-1.00;-1.00;105689;1252;1060942;-76
2023/01/22 02:06:11;;;;;;;32.80;24.10;;;;;;;-128.00;-1.00;-1.00;105682;1252;1004569;-76
2023/01/22 02:08:41;;;;;;;33.00;23.40;;;;;;;-128.00;-1.00;-1.00;105661;1252;1003665;-75
2023/01/22 02:11:10;;;;;;;34.40;24.90;;;;;;;-128.00;-1.00;-1.00;105649;1252;1045944;-76
2023/01/22 02:13:39;;;;;;;34.30;24.00;;;;;;;-128.00;-1.00;-1.00;105649;1253;1046665;-76
2023/01/22 02:16:08;;;;;;;37.30;25.20;;;;;;;-128.00;-1.00;-1.00;105708;1252;1061950;-75
2023/01/22 02:18:35;;;;;;;35.20;25.10;;;;;;;-128.00;-1.00;-1.00;105693;1252;1056399;-75
2023/01/22 02:21:03;;;;;;;33.70;25.00;;;;;;;-128.00;-1.00;-1.00;105665;1253;1004635;-75
2023/01/22 02:23:31;;;;;;;33.90;24.20;;;;;;;-128.00;-1.00;-1.00;105662;1252;1004078;-76
2023/01/22 02:25:58;;;;;;;37.20;24.00;;;;;;;-128.00;-1.00;-1.00;105667;1252;1003693;-75
2023/01/22 02:28:25;;;;;;;33.40;23.30;;;;;;;-128.00;-1.00;-1.00;105661;1253;1004967;-75
2023/01/22 02:30:52;;;;;;;33.90;23.40;;;;;;;-128.00;-1.00;-1.00;105639;1252;1004454;-76
2023/01/22 02:33:18;;;;;;;33.40;22.30;;;;;;;-128.00;-1.00;-1.00;105651;1253;1005096;-76
2023/01/22 02:35:45;;;;;;;30.10;21.20;;;;;;;-128.00;-1.00;-1.00;105664;1253;1004038;-75
2023/01/22 02:38:13;;;;;;;29.40;20.80;;;;;;;-128.00;-1.00;-1.00;105679;1253;1004457;-75
2023/01/22 02:40:47;;;;;;;35.70;23.20;;;;;;;-128.00;-1.00;-1.00;105700;1253;1003606;-75
2023/01/22 02:43:14;;;;;;;28.80;20.90;;;;;;;-128.00;-1.00;-1.00;105706;1252;1055470;-75
2023/01/22 02:45:42;;;;;;;28.10;19.50;;;;;;;-128.00;-1.00;-1.00;105607;1253;1004093;-75
2023/01/22 02:48:08;;;;;;;29.80;20.90;;;;;;;-128.00;-1.00;-1.00;105649;1253;1004342;-75
2023/01/22 02:50:35;;;;;;;32.90;22.70;;;;;;;-128.00;-1.00;-1.00;105629;1253;1004977;-75
2023/01/22 02:53:02;;;;;;;34.90;24.50;;;;;;;-128.00;-1.00;-1.00;105669;1253;1004340;-75
2023/01/22 02:55:29;;;;;;;34.30;23.90;;;;;;;-128.00;-1.00;-1.00;104948;1253;1004162;-75
2023/01/22 02:57:56;;;;;;;34.60;22.90;;;;;;;-128.00;-1.00;-1.00;105698;1253;1004605;-75
2023/01/22 03:00:35;;;;;;;30.80;21.70;;;;;;;-128.00;-1.00;-1.00;105639;1253;1003792;-75
2023/01/22 03:03:06;;;;;;;32.60;21.80;;;;;;;-128.00;-1.00;-1.00;105678;1252;1046377;-75
2023/01/22 03:05:33;;;;;;;34.90;23.40;;;;;;;-128.00;-1.00;-1.00;105654;1252;1061367;-75
2023/01/22 03:08:00;;;;;;;35.00;24.10;;;;;;;-128.00;-1.00;-1.00;105662;1253;1004689;-75
2023/01/22 03:10:27;;;;;;;32.70;23.60;;;;;;;-128.00;-1.00;-1.00;105730;1253;1003638;-75
2023/01/22 03:21:17;;;;;;;26.80;20.60;;;;;;;-128.00;-1.00;-1.00;105656;1253;1055298;-75
2023/01/22 03:23:46;;;;;;;34.10;23.40;;;;;;;-128.00;-1.00;-1.00;105663;1253;1058574;-75
2023/01/22 03:26:13;;;;;;;32.20;23.30;;;;;;;-128.00;-1.00;-1.00;105651;1253;1045285;-75
2023/01/22 03:28:40;;;;;;;31.70;23.00;;;;;;;-128.00;-1.00;-1.00;105626;1253;1005251;-76
2023/01/22 03:31:07;;;;;;;32.80;22.80;;;;;;;-128.00;-1.00;-1.00;105725;1253;1003962;-76
2023/01/22 03:33:34;;;;;;;30.50;22.60;;;;;;;-128.00;-1.00;-1.00;105344;1252;1004007;-75
2023/01/22 03:36:04;;;;;;;34.60;23.50;;;;;;;-128.00;-1.00;-1.00;105705;1253;1004507;-75
2023/01/22 03:38:31;;;;;;;35.80;22.10;;;;;;;-128.00;-1.00;-1.00;105644;1253;1045582;-75
2023/01/22 03:41:09;;;;;;;34.20;23.50;;;;;;;-128.00;-1.00;-1.00;105713;1253;1003901;-75
2023/01/22 03:43:36;;;;;;;35.00;24.00;;;;;;;-128.00;-1.00;-1.00;105683;1253;1061188;-75
2023/01/22 03:46:11;;;;;;;34.00;22.80;;;;;;;-128.00;-1.00;-1.00;105690;1254;1004036;-75
2023/01/22 03:48:38;;;;;;;31.20;21.40;;;;;;;-128.00;-1.00;-1.00;105714;1253;1058643;-75
2023/01/22 03:51:13;;;;;;;32.20;21.70;;;;;;;-128.00;-1.00;-1.00;105685;1253;1004504;-75
2023/01/22 03:53:42;;;;;;;31.00;21.10;;;;;;;-128.00;-1.00;-1.00;105713;1253;1046793;-75
2023/01/22 03:56:16;;;;;;;32.70;21.30;;;;;;;-128.00;-1.00;-1.00;105716;1252;1061241;-75
2023/01/22 03:58:43;;;;;;;27.70;19.40;;;;;;;-128.00;-1.00;-1.00;105726;1254;1056728;-75
2023/01/22 04:01:16;;;;;;;30.70;21.50;;;;;;;-128.00;-1.00;-1.00;105683;1253;1004702;-76
2023/01/22 04:03:43;;;;;;;33.00;22.20;;;;;;;-128.00;-1.00;-1.00;105634;1253;1044635;-76
2023/01/22 04:06:10;;;;;;;30.00;21.80;;;;;;;-128.00;-1.00;-1.00;105687;1253;1005112;-76
2023/01/22 04:08:39;;;;;;;31.50;21.40;;;;;;;-128.00;-1.00;-1.00;105719;1253;1004017;-76
2023/01/22 04:11:07;;;;;;;34.50;21.90;;;;;;;-128.00;-1.00;-1.00;105409;1252;1056363;-76
2023/01/22 04:13:35;;;;;;;33.00;23.10;;;;;;;-128.00;-1.00;-1.00;105663;1253;1003534;-76
2023/01/22 04:16:02;;;;;;;28.70;21.30;;;;;;;-128.00;-1.00;-1.00;105667;1253;1004382;-76
2023/01/22 04:18:28;;;;;;;32.60;21.30;;;;;;;-128.00;-1.00;-1.00;105637;1253;1004281;-76
2023/01/22 04:20:56;;;;;;;31.80;20.30;;;;;;;-128.00;-1.00;-1.00;105726;1253;1003860;-76
2023/01/22 04:23:23;;;;;;;32.90;20.30;;;;;;;-128.00;-1.00;-1.00;105648;1253;1003867;-76
2023/01/22 04:25:51;;;;;;;27.40;20.00;;;;;;;-128.00;-1.00;-1.00;105390;1253;1004724;-76
2023/01/22 04:28:18;;;;;;;31.90;22.20;;;;;;;-128.00;-1.00;-1.00;105688;1253;1003931;-76
2023/01/22 04:30:46;;;;;;;24.70;17.70;;;;;;;-128.00;-1.00;-1.00;105663;1253;1003928;-76
2023/01/22 04:33:13;;;;;;;26.20;17.90;;;;;;;-128.00;-1.00;-1.00;105708;1253;1061771;-76
2023/01/22 04:35:41;;;;;;;24.90;17.40;;;;;;;-128.00;-1.00;-1.00;104544;1253;1004655;-76
2023/01/22 04:38:11;;;;;;;24.00;15.20;;;;;;;-128.00;-1.00;-1.00;105669;1253;1003945;-76
2023/01/22 04:40:38;;;;;;;26.00;17.10;;;;;;;-128.00;-1.00;-1.00;105638;1253;1045609;-76
2023/01/22 04:43:07;;;;;;;23.00;17.20;;;;;;;-128.00;-1.00;-1.00;105735;1252;1004237;-76
2023/01/22 04:45:33;;;;;;;24.20;16.30;;;;;;;-128.00;-1.00;-1.00;105673;1253;1062422;-76
2023/01/22 04:48:01;;;;;;;21.10;16.20;;;;;;;-128.00;-1.00;-1.00;105411;1253;1005289;-76
2023/01/22 04:50:31;;;;;;;22.60;16.80;;;;;;;-128.00;-1.00;-1.00;105685;1253;1004210;-76
2023/01/22 04:52:58;;;;;;;;;;;;;;;-128.00;-1.00;-1.00;105673;1253;1046115;-76
2023/01/22 04:55:25;;;;;;;23.50;17.50;;;;;;;-128.00;-1.00;-1.00;105673;1252;1004492;-76
2023/01/22 04:57:55;;;;;;;26.00;17.90;;;;;;;-128.00;-1.00;-1.00;105681;1252;1004727;-75
2023/01/22 05:00:22;;;;;;;24.60;17.30;;;;;;;-128.00;-1.00;-1.00;105701;1253;1056327;-75
2023/01/22 05:02:49;;;;;;;24.90;19.30;;;;;;;-128.00;-1.00;-1.00;105426;1253;1004163;-76
2023/01/22 05:05:16;;;;;;;24.10;18.40;;;;;;;-128.00;-1.00;-1.00;105688;1252;1004347;-75
2023/01/22 05:07:43;;;;;;;25.90;19.30;;;;;;;-128.00;-1.00;-1.00;105702;1252;1004491;-76
2023/01/22 05:10:10;;;;;;;27.80;20.40;;;;;;;-128.00;-1.00;-1.00;105731;1253;1004293;-75
2023/01/22 05:12:37;;;;;;;25.90;19.90;;;;;;;-128.00;-1.00;-1.00;105685;1252;1004730;-75
2023/01/22 05:15:04;;;;;;;25.30;18.30;;;;;;;-128.00;-1.00;-1.00;105661;1253;1004085;-76
2023/01/22 05:17:31;;;;;;;27.30;19.70;;;;;;;-128.00;-1.00;-1.00;105672;1253;1004168;-76
2023/01/22 05:19:57;;;;;;;22.70;16.30;;;;;;;-128.00;-1.00;-1.00;105710;1253;1003336;-76
2023/01/22 05:22:24;;;;;;;21.40;15.70;;;;;;;-128.00;-1.00;-1.00;105695;1253;1005032;-76
2023/01/22 05:24:51;;;;;;;22.10;15.90;;;;;;;-128.00;-1.00;-1.00;105678;1253;1005575;-76
2023/01/22 05:27:17;;;;;;;22.80;16.00;;;;;;;-128.00;-1.00;-1.00;105708;1253;1004808;-76
2023/01/22 05:29:44;;;;;;;21.40;15.70;;;;;;;-128.00;-1.00;-1.00;105679;1253;1004085;-75
2023/01/22 05:32:12;;;;;;;21.60;15.80;;;;;;;-128.00;-1.00;-1.00;105663;1252;1004212;-75
2023/01/22 05:34:39;;;;;;;19.10;14.90;;;;;;;-128.00;-1.00;-1.00;105708;1252;1062570;-75
2023/01/22 05:37:06;;;;;;;20.20;14.10;;;;;;;-128.00;-1.00;-1.00;105664;1253;1004057;-76
2023/01/22 05:39:33;;;;;;;18.80;14.00;;;;;;;-128.00;-1.00;-1.00;105700;1252;1004659;-75
2023/01/22 05:41:59;;;;;;;20.50;14.20;;;;;;;-128.00;-1.00;-1.00;105681;1252;1004010;-76
2023/01/22 05:44:26;;;;;;;22.00;14.30;;;;;;;-128.00;-1.00;-1.00;105659;1253;1003827;-76
2023/01/22 05:46:52;;;;;;;21.00;14.60;;;;;;;-128.00;-1.00;-1.00;105767;1253;1003740;-75
2023/01/22 05:49:19;;;;;;;21.50;14.50;;;;;;;-128.00;-1.00;-1.00;105683;1252;1003752;-75
2023/01/22 05:51:46;;;;;;;23.00;15.60;;;;;;;-128.00;-1.00;-1.00;105670;1252;1003920;-75
2023/01/22 05:54:12;;;;;;;24.20;16.40;;;;;;;-128.00;-1.00;-1.00;105681;1253;1003833;-76
2023/01/22 05:56:39;;;;;;;21.60;14.80;;;;;;;-128.00;-1.00;-1.00;105752;1253;1004212;-76
2023/01/22 05:59:06;;;;;;;19.00;14.90;;;;;;;-128.00;-1.00;-1.00;105677;1252;1003878;-75
2023/01/22 06:01:32;;;;;;;22.10;15.70;;;;;;;-128.00;-1.00;-1.00;105471;1253;1004375;-76
2023/01/22 06:03:59;;;;;;;23.70;16.20;;;;;;;-128.00;-1.00;-1.00;105690;1252;1004871;-76
2023/01/22 06:06:26;;;;;;;22.40;16.50;;;;;;;-128.00;-1.00;-1.00;105704;1253;1004343;-76
2023/01/22 06:08:52;;;;;;;25.00;17.50;;;;;;;-128.00;-1.00;-1.00;105705;1252;1004516;-75
2023/01/22 06:11:19;;;;;;;22.20;17.40;;;;;;;-128.00;-1.00;-1.00;105665;1253;1003981;-75
2023/01/22 06:13:46;;;;;;;21.30;16.10;;;;;;;-128.00;-1.00;-1.00;105707;1253;1003720;-75
2023/01/22 06:16:13;;;;;;;26.60;16.50;;;;;;;-128.00;-1.00;-1.00;104110;1252;1004721;-75
2023/01/22 06:18:39;;;;;;;23.80;15.90;;;;;;;-128.00;-1.00;-1.00;105703;1253;1004287;-76
2023/01/22 06:21:07;;;;;;;21.60;15.80;;;;;;;-128.00;-1.00;-1.00;105657;1256;1004470;-75
2023/01/22 06:23:34;;;;;;;22.50;16.50;;;;;;;-128.00;-1.00;-1.00;105556;1253;1004238;-76
2023/01/22 06:26:02;;;;;;;20.70;15.40;;;;;;;-128.00;-1.00;-1.00;105696;1253;1004574;-76
2023/01/22 06:28:30;;;;;;;22.50;15.10;;;;;;;-128.00;-1.00;-1.00;105647;1252;1003555;-76
2023/01/22 06:31:06;;;;;;;20.80;15.50;;;;;;;-128.00;-1.00;-1.00;105688;1253;1004824;-76
2023/01/22 06:33:33;;;;;;;24.60;15.90;;;;;;;-128.00;-1.00;-1.00;105687;1253;1048106;-76
2023/01/22 06:36:01;;;;;;;21.70;14.90;;;;;;;-128.00;-1.00;-1.00;105550;1252;1005058;-76
2023/01/22 06:38:29;;;;;;;23.90;15.70;;;;;;;-128.00;-1.00;-1.00;105730;1252;1004528;-76
2023/01/22 06:40:57;;;;;;;21.60;15.40;;;;;;;-128.00;-1.00;-1.00;105739;1253;1003996;-76
2023/01/22 06:43:25;;;;;;;24.30;16.70;;;;;;;-128.00;-1.00;-1.00;105685;1253;1004648;-76
2023/01/22 06:45:53;;;;;;;22.50;16.20;;;;;;;-128.00;-1.00;-1.00;105738;1252;1004139;-75
2023/01/22 06:48:20;;;;;;;24.50;17.10;;;;;;;-128.00;-1.00;-1.00;105669;1253;1004564;-75
2023/01/22 06:50:47;;;;;;;22.90;17.20;;;;;;;-128.00;-1.00;-1.00;105440;1253;1004576;-76
2023/01/22 06:53:16;;;;;;;22.30;16.80;;;;;;;-128.00;-1.00;-1.00;105320;1253;1059885;-75
2023/01/22 06:55:44;;;;;;;22.60;16.20;;;;;;;-128.00;-1.00;-1.00;105695;1253;1003742;-76
2023/01/22 06:58:10;;;;;;;22.60;15.40;;;;;;;-128.00;-1.00;-1.00;105717;1252;1004474;-77
2023/01/22 07:00:37;;;;;;;21.80;15.50;;;;;;;-128.00;-1.00;-1.00;105398;1253;1003855;-76
2023/01/22 07:03:05;;;;;;;22.90;15.00;;;;;;;-128.00;-1.00;-1.00;105411;1252;1004419;-76
2023/01/22 07:05:33;;;;;;;23.80;15.30;;;;;;;-128.00;-1.00;-1.00;105458;1253;1004034;-76
2023/01/22 07:08:00;;;;;;;20.40;14.10;;;;;;;-128.00;-1.00;-1.00;105682;1253;1004208;-76
2023/01/22 07:10:27;;;;;;;21.70;15.70;;;;;;;-128.00;-1.00;-1.00;105691;1253;1004801;-76
2023/01/22 07:12:57;;;;;;;20.70;14.30;;;;;;;-128.00;-1.00;-1.00;105723;1253;1004446;-75
2023/01/22 07:15:24;;;;;;;;;;;;;;;-128.00;-1.00;-1.00;105730;1252;1055614;-75
2023/01/22 07:17:52;;;;;;;21.70;14.10;;;;;;;-128.00;-1.00;-1.00;105754;1253;1004477;-76
2023/01/22 07:20:21;;;;;;;22.80;15.80;;;;;;;-128.00;-1.00;-1.00;105776;1252;1004745;-76
2023/01/22 07:22:47;;;;;;;25.50;19.00;;;;;;;-128.00;-1.00;-1.00;105795;1252;1003966;-76
2023/01/22 07:25:14;;;;;;;24.20;17.50;;;;;;;-128.00;-1.00;-1.00;105787;1253;1004487;-76
2023/01/22 07:27:41;;;;;;;23.40;17.20;;;;;;;-128.00;-1.00;-1.00;105823;1253;1004343;-77
2023/01/22 07:30:08;;;;;;;21.60;15.90;;;;;;;-128.00;-1.00;-1.00;105763;1251;1003657;-76
2023/01/22 07:32:35;;;;;;;23.00;15.80;;;;;;;-128.00;-1.00;-1.00;105753;1252;1003568;-76
2023/01/22 07:35:02;;;;;;;22.10;15.50;;;;;;;-128.00;-1.00;-1.00;105797;1252;1003494;-76
2023/01/22 07:37:29;;;;;;;23.00;15.90;;;;;;;-128.00;-1.00;-1.00;105605;1253;1004482;-76
2023/01/22 07:39:55;;;;;;;22.20;15.90;;;;;;;-128.00;-1.00;-1.00;105788;1253;1003349;-75
2023/01/22 07:42:22;;;;;;;20.90;16.20;;;;;;;-128.00;-1.00;-1.00;105746;1253;1003838;-76
2023/01/22 07:44:49;;;;;;;23.30;16.10;;;;;;;-128.00;-1.00;-1.00;105718;1251;1004893;-76
2023/01/22 07:47:15;;;;;;;21.30;16.20;;;;;;;-128.00;-1.00;-1.00;105422;1252;1004160;-76
2023/01/22 07:49:42;;;;;;;19.70;15.30;;;;;;;-128.00;-1.00;-1.00;105755;1252;1003380;-76
2023/01/22 07:52:09;;;;;;;20.60;15.80;;;;;;;-128.00;-1.00;-1.00;105763;1253;1003595;-77
2023/01/22 07:54:35;;;;;;;23.20;16.70;;;;;;;-128.00;-1.00;-1.00;105760;1252;1004961;-76
2023/01/22 07:57:03;;;;;;;19.00;15.60;;;;;;;-128.00;-1.00;-1.00;105761;1253;1004304;-76
2023/01/22 07:59:29;;;;;;;21.90;15.90;;;;;;;-128.00;-1.00;-1.00;105767;1251;1003971;-76
2023/01/22 08:01:56;;;;;;;21.30;15.50;;;;;;;-128.00;-1.00;-1.00;105648;1251;1004758;-76
2023/01/22 08:04:23;;;;;;;20.70;15.70;;;;;;;-128.00;-1.00;-1.00;105608;1253;1003425;-76
2023/01/22 08:06:51;;;;;;;20.60;15.30;;;;;;;-128.00;-1.00;-1.00;105727;1252;1005879;-76
2023/01/22 08:09:23;;;;;;;20.60;15.60;;;;;;;-128.00;-1.00;-1.00;105764;1252;1004980;-76
2023/01/22 08:11:51;;;;;;;22.70;15.50;;;;;;;-128.00;-1.00;-1.00;105794;1252;1045804;-77
2023/01/22 08:14:19;;;;;;;23.20;16.00;;;;;;;-128.00;-1.00;-1.00;105768;1251;1004762;-76
2023/01/22 08:16:45;;;;;;;22.10;14.80;;;;;;;-128.00;-1.00;-1.00;105789;1251;1004440;-77
2023/01/22 08:19:14;;;;;;;21.70;15.70;;;;;;;-128.00;-1.00;-1.00;105746;1253;1003207;-77
2023/01/22 08:21:40;;;;;;;20.60;16.00;;;;;;;-128.00;-1.00;-1.00;105779;1251;1005172;-76
2023/01/22 08:24:09;;;;;;;18.20;14.70;;;;;;;-128.00;-1.00;-1.00;104200;1252;1003769;-75
2023/01/22 08:26:36;;;;;;;19.70;14.30;;;;;;;-128.00;-1.00;-1.00;105440;1253;1003907;-76
2023/01/22 08:29:03;;;;;;;18.40;13.40;;;;;;;-128.00;-1.00;-1.00;105698;1253;1004031;-75
2023/01/22 08:31:29;;;;;;;19.80;14.80;;;;;;;-128.00;-1.00;-1.00;105689;1253;1005200;-76
2023/01/22 08:33:59;;;;;;;19.50;14.60;;;;;;;-128.00;-1.00;-1.00;105669;1253;1003707;-76
2023/01/22 08:36:26;;;;;;;20.80;14.30;;;;;;;-128.00;-1.00;-1.00;105708;1253;1047183;-76
2023/01/22 08:38:53;;;;;;;20.60;15.80;;;;;;;-128.00;-1.00;-1.00;105392;1253;1004694;-76
2023/01/22 08:41:20;;;;;;;21.30;14.00;;;;;;;-128.00;-1.00;-1.00;105719;1253;1004276;-76
2023/01/22 08:43:47;;;;;;;16.70;13.20;;;;;;;-128.00;-1.00;-1.00;105742;1253;1003485;-76
2023/01/22 08:46:13;;;;;;;17.50;13.50;;;;;;;-128.00;-1.00;-1.00;105701;1253;1003837;-75
2023/01/22 08:48:42;;;;;;;19.50;15.20;;;;;;;-128.00;-1.00;-1.00;105706;1253;1004905;-76
2023/01/22 08:51:10;;;;;;;23.50;16.30;;;;;;;-128.00;-1.00;-1.00;105691;1256;1061763;-76
2023/01/22 08:53:38;;;;;;;19.70;14.90;;;;;;;-128.00;-1.00;-1.00;105682;1253;1004444;-76
2023/01/22 08:56:07;;;;;;;19.10;15.10;;;;;;;-128.00;-1.00;-1.00;105709;1253;1003804;-77
2023/01/22 08:58:34;;;;;;;20.40;14.50;;;;;;;-128.00;-1.00;-1.00;105690;1253;1045244;-75
2023/01/22 09:01:00;;;;;;;19.50;13.80;;;;;;;-128.00;-1.00;-1.00;105695;1253;1004220;-77
2023/01/22 09:03:28;;;;;;;18.00;14.00;;;;;;;-128.00;-1.00;-1.00;105721;1253;1004126;-77
2023/01/22 09:05:56;;;;;;;21.40;14.50;;;;;;;-128.00;-1.00;-1.00;105705;1253;1004620;-76
2023/01/22 09:08:23;;;;;;;19.10;15.00;;;;;;;-128.00;-1.00;-1.00;105707;1253;1058472;-75
2023/01/22 09:10:50;;;;;;;21.10;16.60;;;;;;;-128.00;-1.00;-1.00;105684;1253;1004423;-76
2023/01/22 09:13:17;;;;;;;22.00;15.90;;;;;;;-128.00;-1.00;-1.00;105724;1253;1003987;-77
2023/01/22 09:15:44;;;;;;;21.20;16.80;;;;;;;-128.00;-1.00;-1.00;105677;1253;1004396;-76
2023/01/22 09:18:10;;;;;;;20.60;15.90;;;;;;;-128.00;-1.00;-1.00;105667;1253;1004394;-73
2023/01/22 09:20:37;;;;;;;20.80;16.10;;;;;;;-128.00;-1.00;-1.00;105236;1253;1003755;-84
2023/01/22 09:23:04;;;;;;;24.00;17.80;;;;;;;-128.00;-1.00;-1.00;105693;1251;1004225;-77
2023/01/22 09:25:30;;;;;;;20.40;15.50;;;;;;;-128.00;-1.00;-1.00;105819;1253;1005118;-77
2023/01/22 09:27:58;;;;;;;22.10;16.90;;;;;;;-128.00;-1.00;-1.00;105566;1253;1004663;-80
2023/01/22 09:30:28;;;;;;;20.80;15.60;;;;;;;-128.00;-1.00;-1.00;105770;1251;1004060;-78
2023/01/22 09:32:55;;;;;;;20.70;16.20;;;;;;;-128.00;-1.00;-1.00;105723;1251;1058968;-76
2023/01/22 09:35:21;;;;;;;21.90;16.10;;;;;;;-128.00;-1.00;-1.00;105784;1251;1004190;-75
2023/01/22 09:37:48;;;;;;;18.00;15.20;;;;;;;-128.00;-1.00;-1.00;105797;1252;1004564;-75
2023/01/22 09:40:24;;;;;;;18.50;15.10;;;;;;;-128.00;-1.00;-1.00;105760;1251;1003898;-76
2023/01/22 09:43:01;;;;;;;19.60;14.60;;;;;;;-128.00;-1.00;-1.00;105485;1251;1055769;-76
2023/01/22 09:45:27;;;;;;;19.70;14.50;;;;;;;-128.00;-1.00;-1.00;105810;1251;1058981;-76
2023/01/22 09:47:59;;;;;;;25.10;16.40;;;;;;;-128.00;-1.00;-1.00;105759;1251;1003531;-76
2023/01/22 09:50:29;;;;;;;19.50;15.50;;;;;;;-128.00;-1.00;-1.00;105493;1251;1048312;-75
2023/01/22 09:53:00;;;;;;;22.60;15.90;;;;;;;-128.00;-1.00;-1.00;105817;1251;1060884;-75
2023/01/22 09:55:31;;;;;;;18.10;14.70;;;;;;;-128.00;-1.00;-1.00;105780;1251;1056101;-76
2023/01/22 09:58:01;;;;;;;17.90;13.90;;;;;;;-128.00;-1.00;-1.00;105790;1251;1059612;-77
2023/01/22 10:00:38;;;;;;;18.10;14.10;;;;;;;-128.00;-1.00;-1.00;105732;1251;1045535;-75
2023/01/22 10:03:27;;;;;;;18.20;14.50;;;;;;;-128.00;-1.00;-1.00;105763;1254;1047017;-76
2023/01/22 10:06:17;;;;;;;16.20;13.10;;;;;;;-128.00;-1.00;-1.00;105495;1251;1061890;-76
2023/01/22 10:09:02;;;;;;;15.80;12.80;;;;;;;-128.00;-1.00;-1.00;105506;1251;1055697;-77
2023/01/22 10:11:29;;;;;;;17.50;14.00;;;;;;;-128.00;-1.00;-1.00;105551;1251;1059078;-76
2023/01/22 10:13:58;;;;;;;19.40;15.60;;;;;;;-128.00;-1.00;-1.00;105751;1254;1004026;-75
2023/01/22 10:16:25;;;;;;;20.80;15.80;;;;;;;-128.00;-1.00;-1.00;105771;1251;1046778;-76
2023/01/22 10:19:04;;;;;;;24.20;21.40;;;;;;;-128.00;-1.00;-1.00;105805;1251;1004678;-76
2023/01/22 10:21:44;;;;;;;25.20;17.90;;;;;;;-128.00;-1.00;-1.00;105813;1252;1056540;-77
2023/01/22 10:24:11;;;;;;;21.50;16.40;;;;;;;-128.00;-1.00;-1.00;105781;1251;1058660;-76
2023/01/22 10:26:51;;;;;;;18.00;14.70;;;;;;;-128.00;-1.00;-1.00;105795;1251;1004312;-76
2023/01/22 10:29:23;;;;;;;22.10;16.70;;;;;;;-128.00;-1.00;-1.00;105755;1252;1047143;-76
2023/01/22 10:31:58;;;;;;;21.40;16.20;;;;;;;-128.00;-1.00;-1.00;105744;1251;1060648;-76
2023/01/22 10:34:35;;;;;;;21.10;15.60;;;;;;;-128.00;-1.00;-1.00;105805;1251;1055356;-75
2023/01/22 10:37:15;;;;;;;20.70;15.90;;;;;;;-128.00;-1.00;-1.00;105772;1251;1058740;-77
2023/01/22 10:39:45;;;;;;;19.90;15.50;;;;;;;-128.00;-1.00;-1.00;105755;1251;1044485;-77
2023/01/22 10:42:18;;;;;;;21.10;16.90;;;;;;;-128.00;-1.00;-1.00;105779;1251;1047010;-76
2023/01/22 10:44:46;;;;;;;22.10;16.00;;;;;;;-128.00;-1.00;-1.00;105766;1251;1060863;-75
2023/01/22 10:47:19;;;;;;;19.10;14.60;;;;;;;-128.00;-1.00;-1.00;105618;1251;1004900;-76
2023/01/22 10:49:48;;;;;;;20.80;16.30;;;;;;;-128.00;-1.00;-1.00;105745;1251;1059015;-76
2023/01/22 10:52:36;;;;;;;21.60;16.10;;;;;;;-128.00;-1.00;-1.00;105813;1253;1047244;-76
2023/01/22 10:55:07;;;;;;;20.60;15.40;;;;;;;-128.00;-1.00;-1.00;105766;1251;1046143;-77
2023/01/22 10:57:35;;;;;;;19.40;15.90;;;;;;;-128.00;-1.00;-1.00;105762;1251;1060238;-76
2023/01/22 11:00:17;;;;;;;20.30;16.40;;;;;;;-128.00;-1.00;-1.00;105799;1251;1004614;-76
2023/01/22 11:02:45;;;;;;;22.10;17.40;;;;;;;-128.00;-1.00;-1.00;105749;1251;1058325;-77
2023/01/22 11:05:28;;;;;;;25.60;18.40;;;;;;;-128.00;-1.00;-1.00;105744;1252;1045413;-77
2023/01/22 11:07:59;;;;;;;21.60;16.80;;;;;;;-128.00;-1.00;-1.00;105749;1252;1046824;-75
2023/01/22 11:10:29;;;;;;;22.10;16.50;;;;;;;-128.00;-1.00;-1.00;105806;1253;1061184;-75
2023/01/22 11:13:15;;;;;;;22.00;17.00;;;;;;;-128.00;-1.00;-1.00;105790;1253;1055436;-76
2023/01/22 11:15:52;;;;;;;21.10;16.30;;;;;;;-128.00;-1.00;-1.00;105761;1251;1060061;-77